Island City, Indiana
Current Conditions -  °F | °C
As of 6:35 AM on Saturday 22 Nov 2014 (Local Time) from KDCY Reporting Station
Overcast Overcast  
Wind Chill:   Ceiling: 6000
Heat Index:   Visibility: 10mi
Dew Point:   Wind: 13mph
Humidity: 79%   Direction: 180°S
Pressure: 30.22"   Gusts: NA
Location:  39.0608°N, 87.1852°W
Report Text: KDCY 221135Z AUTO 18011KT 10SM OVC060 05/02 A3022 RMK AO2 T00500016
Loading
Personal Weather Stations






























Interactive Weather Map New forecast layout! Learn more

10-Day Weather Forecast

Advertisements
Track Severe Weather on mobile